Reklama

Seznam meteostanic a jejich METAR

Vyhledat místa podle abecedy:
A B C D E F G H I J K L M N O P Q R S T U V W X Y Z

Filtrovat:

ID stanice:
a/nebo
Název místa (fulltext):
 
Místo (ID)Naposledy načteno 
Edinburgh (EGPH) 15.12.2019 20:50 UTC Zobrazit METAR
EGPH 152050Z 20004KT 9999 SCT025 BKN040 03/01 Q0988
Eindhoven (EHEH) 15.12.2019 20:55 UTC Zobrazit METAR
EHEH 152055Z AUTO 19008KT 9999 OVC190 05/02 Q1006 BLU 20009KT CAVOK
Entebbe (HUEN) 31.10.2019 10:00 UTC Zobrazit METAR
HUEN 311000Z 27008KT 9999 FEW021 FEW023 25/19 Q1018
Esbjerg (EKEB) 15.12.2019 20:50 UTC Zobrazit METAR
EKEB 152050Z AUTO 23014KT 9999 FEW047/// 06/02 Q0997
Reklama

Počasí na Váš email

Emaily jsou bez reklamy a bez spamu



Odhlásit newsletter

Reklama


Lunární kalendář

  • 19.12.
  • 26.12.
  • 03.01.
  • 10.01.



Reklama


Reklama
Povinné ručení
Reklama



Reklama